• Join FlightAware (Why Join?)
  • Login
  • US Flag 
09:20PM EDT


 

Airport Tracker/Info


-or-


 

Live Flight TrackerFlight Track Log ✈ SWA303 ✈ 29-Apr-2013 ✈ KDEN - KIAD

Flight Track Log - Related Links

Times and Time Zones

All times are in EDT time to prevent confusion due to time zone crossing. See the SWA303 flight status page for this flight to view local times or setup timezone preferences in your user account.

Time Position Orientation Groundspeed Altitude Reporting Facility
EDT Latitude Longitude Course Direction KTS MPH feet Rate Location/Type
02:22PM 39.9167 -104.6667 84° East 187 215 6,700  Level Denver TRACON
02:23PM 39.9667 -104.6167 37° Northeast 246 283 8,700 1,740 Climbing Denver TRACON
02:24PM 40.0333 -104.5667 30° Northeast 284 327 10,200 2,400 Climbing Denver TRACON
02:27PM 40.0175 -104.2886 94° East 384 442 16,500 2,700 Climbing Denver Center
02:28PM 39.9250 -103.8931 84° East  Level Estimated
02:28PM 39.9833 -104.1447 107° East 387 445 19,000  Level Denver Center
02:29PM 39.9497 -104.0067 108° East 398 458 20,300 1,860 Climbing Denver Center
02:30PM 39.9125 -103.8531 107° East 412 474 22,900 2,400 Climbing Denver Center
02:31PM 39.8872 -103.7142 103° East 426 490 25,300 2,100 Climbing Denver Center
02:32PM 39.9011 -103.5547 83° East 440 506 27,300 1,800 Climbing Denver Center
02:33PM 39.9072 -103.4175 87° East 450 518 29,000 1,800 Climbing Denver Center
02:34PM 39.9192 -103.1875 86° East 470 541 31,100 1,740 Climbing Denver Center
02:35PM 39.9269 -103.0417 86° East 478 550 32,700 1,860 Climbing Denver Center
02:36PM 39.9372 -102.8403 86° East 475 547 35,000 1,800 Climbing Denver Center
02:37PM 39.9450 -102.6828 86° East 468 539 36,500 960 Climbing Denver Center
02:38PM 39.9539 -102.4956 86° East 464 534 37,000 240 Climbing Denver Center
02:39PM 39.9614 -102.3361 86° East 461 531 37,000  Level Denver Center
02:40PM 39.9689 -102.1775 86° East 460 529 37,000 240 Level Denver Center
02:41PM 39.9761 -101.9931 87° East 458 527 37,500 780 Climbing Denver Center
02:42PM 39.9844 -101.8089 87° East 457 526 38,700 720 Climbing Denver Center
02:43PM 39.9908 -101.6492 87° East 461 531 39,000 120 Climbing Denver Center
02:44PM 39.9969 -101.4611 88° East 466 536 39,000  Level Denver Center
02:45PM 40.0031 -101.3008 87° East 464 534 39,000  Level Denver Center
02:46PM 40.0092 -101.1142 87° East 464 534 39,000  Level Denver Center
02:47PM 40.0139 -100.9547 88° East 464 534 39,000  Level Denver Center
02:48PM 40.0203 -100.7967 87° East 459 528 39,000  Level Denver Center
02:49PM 40.0258 -100.6125 88° East 459 528 39,000  Level Denver Center
02:50PM 40.0308 -100.4569 88° East 453 521 39,000  Level Denver Center
02:51PM 40.0350 -100.2747 88° East 451 519 39,000  Level Denver Center
02:52PM 40.0397 -100.1050 88° East 452 520 39,000  Level Denver Center
02:53PM 40.0439 -99.9375 88° East 449 517 39,000  Level Denver Center
02:54PM 40.0481 -99.7792 88° East 453 521 39,000  Level Denver Center
02:55PM 40.0517 -99.6156 88° East 453 521 39,000  Level Denver Center
02:56PM 40.0556 -99.4511 88° East 455 524 39,000  Level Denver Center
02:57PM 40.0578 -99.2858 89° East 456 525 39,000  Level Denver Center
02:59PM 40.0619 -99.0856 88° East 462 532 39,000  Level Denver Center
03:00PM 40.0642 -98.9189 89° East 461 531 39,000  Level Denver Center
03:01PM 40.0672 -98.7517 89° East 463 533 39,000  Level Denver Center
03:01PM 40.0672 -98.7189 90° East 463 533 39,000  Level Minneapolis Center
03:02PM 40.0694 -98.5506 89° East 465 535 39,000  Level Minneapolis Center
03:03PM 40.0717 -98.3500 89° East 463 533 39,000  Level Minneapolis Center
03:04PM 40.0739 -98.1814 89° East 464 534 39,000  Level Minneapolis Center
03:05PM 40.0744 -98.0147 90° East 463 533 39,000  Level Minneapolis Center
03:06PM 40.0764 -97.8161 89° East 458 527 39,000  Level Minneapolis Center
03:07PM 40.0764 -97.6503 90° East 458 527 39,000  Level Minneapolis Center
03:08PM 40.0775 -97.4864 89° East 455 524 39,000  Level Minneapolis Center
03:09PM 40.0783 -97.2969 90° East 457 526 39,000  Level Minneapolis Center
03:10PM 40.0781 -97.1317 90° East 457 526 39,000  Level Minneapolis Center
03:11PM 40.0783 -96.9672 90° East 456 525 39,000  Level Minneapolis Center
03:12PM 40.0775 -96.8017 90° East 458 527 39,000  Level Minneapolis Center
03:14PM 40.0775 -96.6358 90° East 458 527 39,000  Level Minneapolis Center
03:15PM 40.0761 -96.4375 90° East 458 527 39,000  Level Minneapolis Center
03:16PM 40.0747 -96.2697 91° East 462 532 39,000  Level Minneapolis Center
03:17PM 40.0731 -96.0692 91° East 462 532 39,000  Level Minneapolis Center
03:18PM 40.0725 -95.9014 90° East 463 533 39,000  Level Minneapolis Center
03:19PM 40.0719 -95.7364 90° East 461 531 39,000  Level Minneapolis Center
03:20PM 40.0836 -95.5700 85° East 459 528 39,000  Level Minneapolis Center
03:21PM 40.0936 -95.4042 85° East 460 529 39,000  Level Minneapolis Center
03:22PM 40.1022 -95.2514 86° East 458 527 39,000  Level Kansas City Center
03:23PM 40.1111 -95.0925 86° East 458 527 39,000  Level Kansas City Center
03:24PM 40.1208 -94.9072 86° East 456 525 39,000  Level Kansas City Center
03:25PM 40.1303 -94.7450 86° East 463 533 39,000  Level Kansas City Center
03:26PM 40.1378 -94.5828 86° East 466 536 39,000  Level Kansas City Center
03:27PM 40.1481 -94.3806 86° East 465 535 39,000  Level Minneapolis Center
03:28PM 40.1553 -94.2333 86° East 464 534 39,000  Level Kansas City Center
03:29PM 40.1622 -94.0461 87° East 468 539 39,000  Level Kansas City Center
03:30PM 40.1681 -93.8794 87° East 466 536 39,000  Level Kansas City Center
03:31PM 40.1764 -93.7122 86° East 464 534 39,000 300 Level Kansas City Center
03:32PM 40.1833 -93.5456 87° East 463 533 39,700 840 Climbing Kansas City Center
03:33PM 40.1908 -93.3769 87° East 467 537 40,800 600 Climbing Kansas City Center
03:34PM 40.1972 -93.1783 88° East 461 531 41,000 60 Climbing Kansas City Center
03:35PM 40.2050 -93.0208 86° East 461 531 41,000  Level Kansas City Center
03:36PM 40.2119 -92.8342 87° East 459 528 41,000  Level Kansas City Center
03:37PM 40.2178 -92.6736 87° East 461 531 41,000  Level Kansas City Center
03:38PM 40.2253 -92.4906 87° East 456 525 41,000  Level Kansas City Center
03:39PM 40.2306 -92.3300 87° East 462 532 41,000  Level Kansas City Center
03:40PM 40.2353 -92.1647 88° East 462 532 41,000  Level Kansas City Center
03:41PM 40.2394 -91.9994 88° East 460 529 41,000  Level Kansas City Center
03:42PM 40.2442 -91.8014 88° East 458 527 41,000  Level Kansas City Center
03:43PM 40.2492 -91.6344 88° East 462 532 41,000  Level Kansas City Center
03:44PM 40.2528 -91.4656 88° East 466 536 41,000  Level Kansas City Center
03:45PM 40.2567 -91.2975 88° East 467 537 41,000  Level Kansas City Center
03:46PM 40.2603 -91.1289 88° East 468 539 41,000  Level Kansas City Center
03:47PM 40.2639 -90.9347 89° East 470 541 41,000  Level Kansas City Center
03:48PM 40.2664 -90.8667 87° East 471 542 41,000  Level Chicago Center
03:49PM 40.2700 -90.6972 88° East 467 537 41,000  Level Chicago Center
03:50PM 40.2722 -90.5297 89° East 463 533 41,000  Level Chicago Center
03:51PM 40.2742 -90.3633 89° East 461 531 41,000  Level Chicago Center
03:52PM 40.2769 -90.1978 89° East 459 528 41,000  Level Chicago Center
03:53PM 40.2786 -89.9983 89° East 460 529 41,000  Level Chicago Center
03:54PM 40.2803 -89.8344 89° East 457 526 41,000  Level Chicago Center
03:55PM 40.2806 -89.6675 90° East 462 532 41,000  Level Chicago Center
03:56PM 40.2819 -89.5031 89° East 458 527 41,000  Level Chicago Center
03:57PM 40.2839 -89.3378 89° East 458 527 41,000  Level Chicago Center
03:58PM 40.2842 -89.1372 90° East 461 531 41,000  Level Chicago Center
03:59PM 40.2850 -88.9694 90° East 461 531 41,000  Level Chicago Center
04:00PM 40.2844 -88.8003 90° East 466 536 41,000  Level Chicago Center
04:01PM 40.2853 -88.6314 90° East 464 534 41,000 -420 Level Chicago Center
04:02PM 40.2858 -88.4356 90° East 465 535 40,200 -900 Descending Chicago Center
04:03PM 40.2858 -88.2700 90° East 459 528 39,200 -600 Descending Chicago Center
04:04PM 40.2847 -88.1033 90° East 462 532 39,000 -120 Descending Chicago Center
04:05PM 40.2839 -87.9364 90° East 462 532 39,000  Level Chicago Center
04:06PM 40.2817 -87.7633 91° East 464 534 39,000  Level Indianapolis Center
04:07PM 40.2811 -87.5661 90° East 466 536 39,000  Level Chicago Center
04:08PM 40.2792 -87.3931 91° East 463 533 39,000  Level Chicago Center
04:09PM 40.2775 -87.2206 91° East 468 539 39,000  Level Chicago Center
04:10PM 40.2747 -87.0494 91° East 469 540 39,000  Level Chicago Center
04:12PM 40.2728 -86.8775 91° East 469 540 39,000  Level Chicago Center
04:13PM 40.2694 -86.7058 91° East 468 539 39,000  Level Chicago Center
04:14PM 40.2664 -86.5344 91° East 466 536 39,000  Level Chicago Center
04:15PM 40.2628 -86.3631 92° East 466 536 39,000  Level Chicago Center
04:16PM 40.2581 -86.1628 92° East 467 537 39,000  Level Chicago Center
04:17PM 40.2542 -85.9925 92° East 466 536 39,000  Level Chicago Center
04:18PM 40.2503 -85.8197 92° East 470 541 39,000  Level Chicago Center
04:19PM 40.2464 -85.6492 92° East 468 539 39,000  Level Chicago Center
04:20PM 40.2419 -85.4781 92° East 468 539 39,000  Level Chicago Center
04:21PM 40.2356 -85.3353 93° East 465 535 39,000  Level Indianapolis Center
04:22PM 40.2317 -85.1647 92° East 466 536 39,000  Level Indianapolis Center
04:23PM 40.2253 -84.9669 92° East 464 534 39,000  Level Indianapolis Center
04:24PM 40.2197 -84.7944 92° East 464 534 39,000  Level Indianapolis Center
04:25PM 40.2139 -84.6275 93° East 457 526 39,000  Level Indianapolis Center
04:26PM 40.2081 -84.4608 93° East 454 522 39,000  Level Indianapolis Center
04:27PM 40.2017 -84.2953 93° East 451 519 39,000  Level Indianapolis Center
04:28PM 40.1953 -84.1314 93° East 449 517 39,000  Level Indianapolis Center
04:29PM 40.1886 -83.9658 93° East 449 517 39,000  Level Indianapolis Center
04:30PM 40.1808 -83.7983 93° East 454 522 39,000  Level Indianapolis Center
04:31PM 40.1753 -83.6317 92° East 452 520 39,000  Level Indianapolis Center
04:32PM 40.1672 -83.4636 94° East 455 524 39,000  Level Indianapolis Center
04:33PM 40.1583 -83.2664 93° East 458 527 39,000  Level Indianapolis Center
04:34PM 40.1497 -83.0986 94° East 457 526 39,000  Level Indianapolis Center
04:35PM 40.1411 -82.9303 94° East 458 527 39,000  Level Indianapolis Center
04:36PM 40.1331 -82.7611 94° East 460 529 39,000  Level Indianapolis Center
04:37PM 40.1247 -82.5942 94° East 457 526 39,000  Level Indianapolis Center
04:38PM 40.1153 -82.4253 94° East 462 532 39,000  Level Indianapolis Center
04:39PM 40.1058 -82.2572 94° East 460 529 39,000  Level Indianapolis Center
04:40PM 40.0964 -82.0900 94° East 460 529 39,000  Level Indianapolis Center
04:41PM 40.0867 -81.9217 94° East 460 529 39,000  Level Indianapolis Center
04:42PM 40.0756 -81.7414 95° East 455 524 39,000  Level Indianapolis Center
04:43PM 40.0658 -81.5753 94° East 457 526 39,000  Level Indianapolis Center
04:44PM 40.0553 -81.4089 95° East 457 526 39,000  Level Indianapolis Center
04:45PM 40.0450 -81.2436 95° East 455 524 39,000  Level Indianapolis Center
04:46PM 40.0369 -81.0847 94° East 457 526 39,000  Level Cleveland Center
04:47PM 40.0269 -80.9247 95° East 457 526 39,000 -300 Level Cleveland Center
04:48PM 39.9961 -80.7700 105° East 451 519 38,500 -720 Descending Cleveland Center
04:49PM 39.9294 -80.6264 121° Southeast 444 511 37,600 -960 Descending Cleveland Center
04:50PM 39.8628 -80.4858 122° Southeast 449 517 36,600 -960 Descending Cleveland Center
04:51PM 39.7939 -80.3453 123° Southeast 456 525 35,700 -960 Descending Cleveland Center
04:52PM 39.7289 -80.2078 122° Southeast 461 531 34,700 -960 Descending Cleveland Center
04:53PM 39.6594 -80.0681 123° Southeast 456 525 33,800 -960 Descending Cleveland Center
04:54PM 39.5919 -79.9272 122° Southeast 460 529 32,800 -1,500 Descending Washington Center
04:55PM 39.5431 -79.7764 113° Southeast 460 529 30,700 -2,280 Descending Washington Center
04:56PM 39.5150 -79.6214 103° East 445 512 28,300 -1,920 Descending Washington Center
04:57PM 39.4889 -79.4694 103° East 434 499 27,000 -1,200 Descending Washington Center
04:58PM 39.4622 -79.3200 103° East 422 486 26,000 -1,440 Descending Washington Center
04:59PM 39.4356 -79.1736 103° East 422 486 24,100 -2,340 Descending Washington Center
05:00PM 39.4103 -79.0300 103° East 417 480 21,300 -2,580 Descending Washington Center
05:01PM 39.3831 -78.8889 104° East 417 480 18,900 -2,520 Descending Washington Center
05:02PM 39.3575 -78.7536 104° East 405 466 16,300 -2,400 Descending Washington Center
05:03PM 39.3339 -78.6211 103° East 388 447 14,200 -2,100 Descending Washington Center
05:04PM 39.3119 -78.4994 103° East 364 419 12,200 -1,620 Descending Washington Center
05:05PM 39.2897 -78.3833 104° East 347 399 10,900 -840 Descending Washington Center
05:06PM 39.2500 -78.2906 119° Southeast 316 364 10,600 -960 Descending Washington Center
05:07PM 39.2483 -78.1778 91° East 291 335 9,100 -1,440 Descending Washington Center
05:08PM 39.2506 -78.0761 88° East 276 318 7,700 -1,440 Descending Washington Center
05:09PM 39.2419 -77.9767 96° East 276 318 6,300 -1,380 Descending Washington Center
05:10PM 39.2292 -77.8825 100° East 271 312 5,000 -660 Descending Washington Center
05:11PM 39.2186 -77.7911 98° East 271 312 5,000 -540 Level Washington Center
05:12PM 39.2033 -77.6994 102° East 261 300 4,000 -540 Descending Washington Center
05:13PM 39.1944 -77.6108 97° East 256 295 4,000 -120 Level Washington Center
05:15PM 39.1833 -77.5000 97° East 228 262 3,800 -300 Descending Potomac TRACON
05:16PM 39.1333 -77.4667 153° Southeast 174 200 3,400 -720 Descending Potomac TRACON
05:17PM 39.1000 -77.4500 159° South 164 189 2,400 -840 Descending Potomac TRACON
05:18PM 39.0500 -77.4667 195° South 161 185 1,800 -660 Descending Potomac TRACON
05:19PM 39.0167 -77.4667 180° South 128 147 1,100 -720 Descending Potomac TRACON
05:21PM 38.9474 -77.4599 165° South  Level Estimated
05:28PM 38.9474 -77.4599 165° South  Level Estimated
05:29PM 38.9474 -77.4599 165° South  Level Estimated